Terminal Aerodrome Forecast
Issued by NWS Cleveland, OH

Home | Current Version | Previous Version | Graphics & Text | Print | Product List | Glossary Off
Versions: 1 2 3 4 5 6 7 8 9 10 11 12 13 14 15 16 17

000
FTUS41 KCLE 070539
TAFCAK
TAF
KCAK 070539Z 0706/0806 19007KT P6SM BKN040 OVC070
      TEMPO 0713/0716 BKN030 BKN250
     FM071600 21010G20KT P6SM BKN035 OVC200
     FM071800 22010G20KT P6SM VCSH BKN035 OVC060
     FM072100 23015KT P6SM -SHRA VCTS OVC035CB
     FM080200 24010KT 3SM -SHRA BR OVC007=

USA.gov is the U.S. government's official web portal to all federal, state and local government web resources and services.